VE06 weather

Public forecast

Using degrees Celsius for public forecast. Weather courtesy of forecast.io.

Closest aviation weather report (METAR) to Venice-Lido Airfield

Closest report is Venice Marco Polo Airport, 4.9 nm (9.0 km) NNW. Retrieved 2020/08/11 13:20 UTC (0 seconds ago):

LIPZ 111320Z 15004KT 120V180 CAVOK 31/20 Q1014 NOSIG

Closest aviation forecast (TAF) to Venice-Lido Airfield

Closest forecast is Venice Marco Polo Airport, 4.9 nm (9.0 km) NNW. Retrieved 2020/08/11 12:22 UTC (49 minutes ago):

TAF LIPZ 111100Z 1112/1218 15010KT 9999 SCT050 BECMG 1118/1120 03006KT BECMG 1209/1211 15010KT